Terminal Aerodrome Forecast
Issued by NWS Pittsburgh, PA

Current Version | Previous Version | Graphics & Text | Print | Product List | Glossary On
Versions: 1 2 3 4 5 6 7 8 9 10 11 12 13 14 15 16 17 18 19 20 21 22 23 24 25 26 27
842
FTUS41 KPBZ 202320
TAFPIT
TAF
KPIT 202320Z 2100/2206 19006KT P6SM SKC
     FM210400 20007KT P6SM SCT250 WS020/23040KT
     FM211500 21012G24KT P6SM SCT150
     FM220500 26007KT P6SM -SHRA BKN040=

USA.gov is the U.S. government's official web portal to all federal, state and local government web resources and services.